Time;durP1;ratioP1;P1;durP2;ratioP2;P2;SDS_P1;SDS_P2;PMS_P1;PMS_P2;Temp;Humidity;BMP_temperature;BMP_pressure;BME280_temperature;BME280_humidity;BME280_pressure;Samples;Min_cycle;Max_cycle;Signal;HPM_P1;HPM_P2
2022/06/12 00:01:00;;;;;;;;;;;21.80;45.70;;;;;;4994338;28;19925;-87
2022/06/12 00:03:26;;;;;;;;;;;21.80;45.60;;;;;;4992523;28;19983;-86
2022/06/12 00:05:53;;;;;;;;;;;21.70;45.60;;;;;;4993844;28;20366;-86
2022/06/12 00:08:21;;;;;;;;;;;21.80;45.60;;;;;;4994872;28;19925;-86
2022/06/12 00:10:48;;;;;;;;;;;21.80;45.60;;;;;;4994106;28;19914;-86
2022/06/12 00:13:16;;;;;;;;;;;21.80;45.50;;;;;;4993872;28;19918;-86
2022/06/12 00:15:41;;;;;;;;;;;21.80;45.40;;;;;;4994091;28;20008;-86
2022/06/12 00:18:07;;;;;;;;;;;21.80;45.40;;;;;;4978411;28;19946;-86
2022/06/12 00:20:33;;;;;;;;;;;21.80;45.40;;;;;;5002000;28;19918;-86
2022/06/12 00:22:59;;;;;;;;;;;21.70;45.60;;;;;;5002369;28;19914;-86
2022/06/12 00:25:26;;;;;;;;;;;21.70;45.70;;;;;;4996210;28;19913;-87
2022/06/12 00:27:52;;;;;;;;;;;21.70;45.60;;;;;;4996504;28;19938;-85
2022/06/12 00:30:19;;;;;;;;;;;21.70;45.60;;;;;;5002382;28;19968;-86
2022/06/12 00:32:49;;;;;;;;;;;21.70;45.60;;;;;;4993737;28;19918;-86
2022/06/12 00:35:16;;;;;;;;;;;21.70;45.50;;;;;;4992344;28;19918;-86
2022/06/12 00:37:42;;;;;;;;;;;21.60;45.50;;;;;;4994294;28;19926;-86
2022/06/12 00:40:07;;;;;;;;;;;21.60;45.40;;;;;;4993280;28;20333;-87
2022/06/12 00:42:35;;;;;;;;;;;21.50;45.30;;;;;;4993803;28;19954;-87
2022/06/12 00:45:21;;;;;;;;;;;21.40;45.20;;;;;;4993319;28;19915;-86
2022/06/12 00:47:46;;;;;;;;;;;21.30;45.20;;;;;;4988057;28;19941;-86
2022/06/12 00:50:11;;;;;;;;;;;21.20;45.20;;;;;;4991353;28;20382;-86
2022/06/12 00:52:42;;;;;;;;;;;21.10;45.20;;;;;;4989128;28;19926;-86
2022/06/12 00:55:17;;;;;;;;;;;20.90;45.20;;;;;;4990085;28;19944;-86
2022/06/12 00:57:55;;;;;;;;;;;20.90;45.30;;;;;;4995538;28;19925;-85
2022/06/12 01:00:21;;;;;;;;;;;20.80;45.40;;;;;;4991517;28;19922;-85
2022/06/12 01:02:46;;;;;;;;;;;20.70;45.50;;;;;;4992072;28;19941;-85
2022/06/12 01:08:05;;;;;;;;;;;20.50;45.90;;;;;;4995577;28;19928;-85
2022/06/12 01:10:32;;;;;;;;;;;20.40;45.90;;;;;;4994325;28;19914;-86
2022/06/12 01:12:59;;;;;;;;;;;20.30;45.90;;;;;;4993869;28;19917;-85
2022/06/12 01:15:27;;;;;;;;;;;20.30;46.00;;;;;;4995098;28;19922;-85
2022/06/12 01:17:53;;;;;;;;;;;20.20;45.90;;;;;;4994764;28;20340;-85
2022/06/12 01:20:21;;;;;;;;;;;20.10;45.90;;;;;;4990301;28;19918;-85
2022/06/12 01:23:11;;;;;;;;;;;20.00;46.00;;;;;;4989949;28;19922;-86
2022/06/12 01:25:49;;;;;;;;;;;20.00;46.00;;;;;;4975003;28;19976;-86
2022/06/12 01:28:33;;;;;;;;;;;19.90;46.10;;;;;;4995181;28;20358;-86
2022/06/12 01:31:08;;;;;;;;;;;19.80;46.20;;;;;;4988687;28;19920;-85
2022/06/12 01:33:53;;;;;;;;;;;19.80;46.30;;;;;;4982355;28;19914;-85
2022/06/12 01:36:37;;;;;;;;;;;19.70;46.40;;;;;;4992858;28;19933;-86
2022/06/12 01:39:02;;;;;;;;;;;19.60;46.40;;;;;;4991758;28;19917;-85
2022/06/12 01:41:34;;;;;;;;;;;19.50;46.50;;;;;;4993287;28;19918;-85
2022/06/12 01:44:13;;;;;;;;;;;19.50;46.60;;;;;;4988385;28;19914;-86
2022/06/12 01:46:52;;;;;;;;;;;19.40;46.70;;;;;;4987279;28;19918;-85
2022/06/12 01:49:26;;;;;;;;;;;19.40;46.70;;;;;;4990584;28;19921;-85
2022/06/12 01:52:23;;;;;;;;;;;19.30;46.80;;;;;;4993128;28;19957;-86
2022/06/12 01:54:57;;;;;;;;;;;19.30;46.80;;;;;;4970678;28;19925;-85
2022/06/12 01:57:32;;;;;;;;;;;19.20;46.90;;;;;;4993608;28;19922;-86
2022/06/12 02:00:02;;;;;;;;;;;19.20;47.00;;;;;;4989153;28;20356;-85
2022/06/12 02:02:30;;;;;;;;;;;19.20;47.00;;;;;;4994008;28;19918;-86
2022/06/12 02:05:00;;;;;;;;;;;19.10;47.10;;;;;;4991358;28;19922;-86
2022/06/12 02:07:37;;;;;;;;;;;19.10;47.20;;;;;;4994213;28;20262;-86
2022/06/12 02:10:29;;;;;;;;;;;19.20;47.20;;;;;;4995732;28;20477;-86
2022/06/12 02:13:13;;;;;;;;;;;19.20;47.60;;;;;;4996782;28;19922;-86
2022/06/12 02:15:44;;;;;;;;;;;19.10;48.20;;;;;;4990151;28;20242;-86
2022/06/12 02:18:15;;;;;;;;;;;19.10;48.10;;;;;;4996341;28;19941;-86
2022/06/12 02:20:43;;;;;;;;;;;19.10;48.10;;;;;;4995958;28;19921;-85
2022/06/12 02:23:15;;;;;;;;;;;19.20;48.10;;;;;;4994413;28;19925;-86
2022/06/12 02:25:41;;;;;;;;;;;19.20;48.10;;;;;;4990460;28;19917;-86
2022/06/12 02:28:12;;;;;;;;;;;19.20;48.10;;;;;;4991714;28;19924;-86
2022/06/12 02:30:43;;;;;;;;;;;19.20;48.00;;;;;;4995708;28;20486;-87
2022/06/12 02:33:13;;;;;;;;;;;19.10;48.00;;;;;;4992028;28;19918;-86
2022/06/12 02:35:45;;;;;;;;;;;19.10;48.00;;;;;;4998120;28;19922;-85
2022/06/12 02:38:17;;;;;;;;;;;19.00;48.00;;;;;;4992480;28;19929;-86
2022/06/12 02:40:45;;;;;;;;;;;18.90;48.00;;;;;;4990714;28;20285;-86
2022/06/12 02:43:13;;;;;;;;;;;18.90;48.10;;;;;;4993090;28;20373;-87
2022/06/12 02:46:06;;;;;;;;;;;18.80;48.00;;;;;;4993479;28;19918;-86
2022/06/12 02:48:32;;;;;;;;;;;18.70;48.00;;;;;;4993021;28;20330;-85
2022/06/12 02:50:58;;;;;;;;;;;18.70;48.10;;;;;;4995260;28;20378;-87
2022/06/12 02:53:42;;;;;;;;;;;18.60;48.50;;;;;;4994880;28;19910;-86
2022/06/12 02:56:25;;;;;;;;;;;18.60;48.40;;;;;;4994119;28;19925;-86
2022/06/12 02:58:57;;;;;;;;;;;18.50;48.50;;;;;;4990177;28;19925;-86
2022/06/12 03:01:36;;;;;;;;;;;18.50;48.50;;;;;;4993063;28;19922;-86
2022/06/12 03:04:11;;;;;;;;;;;18.40;48.60;;;;;;4994224;28;19972;-87
2022/06/12 03:06:38;;;;;;;;;;;18.40;48.60;;;;;;4986743;28;20362;-87
2022/06/12 03:09:05;;;;;;;;;;;18.40;48.70;;;;;;4994049;28;19918;-87
2022/06/12 03:11:41;;;;;;;;;;;18.30;48.70;;;;;;4987558;28;19926;-85
2022/06/12 03:14:14;;;;;;;;;;;18.30;48.80;;;;;;4994198;28;19977;-85
2022/06/12 03:16:41;;;;;;;;;;;18.30;48.90;;;;;;4989696;28;19922;-84
2022/06/12 03:19:25;;;;;;;;;;;18.30;49.20;;;;;;4991872;28;20309;-84
2022/06/12 03:21:50;;;;;;;;;;;18.30;49.10;;;;;;4994581;28;19928;-84
2022/06/12 03:24:22;;;;;;;;;;;18.30;49.20;;;;;;4993842;28;19913;-86
2022/06/12 03:27:00;;;;;;;;;;;18.20;49.30;;;;;;4994378;28;19925;-86
2022/06/12 03:29:38;;;;;;;;;;;18.30;49.30;;;;;;4990309;28;19918;-86
2022/06/12 03:32:30;;;;;;;;;;;18.30;49.30;;;;;;4982782;28;20413;-86
2022/06/12 03:35:34;;;;;;;;;;;18.30;49.40;;;;;;4967658;28;20338;-85
2022/06/12 03:38:15;;;;;;;;;;;18.30;49.40;;;;;;4922516;29;19998;-85
2022/06/12 03:40:59;;;;;;;;;;;18.30;49.70;;;;;;4903897;29;19919;-85
2022/06/12 03:43:34;;;;;;;;;;;18.40;49.80;;;;;;4958081;28;19953;-86
2022/06/12 03:46:18;;;;;;;;;;;18.50;49.90;;;;;;4976273;28;19921;-85
2022/06/12 03:48:54;;;;;;;;;;;18.50;49.90;;;;;;4976061;28;19914;-86
2022/06/12 03:51:30;;;;;;;;;;;18.60;50.20;;;;;;4994162;28;20053;-86
2022/06/12 03:54:01;;;;;;;;;;;18.60;50.30;;;;;;4994276;28;20363;-85
2022/06/12 03:59:14;;;;;;;;;;;18.80;50.60;;;;;;4995302;28;19921;-86
2022/06/12 04:01:41;;;;;;;;;;;19.00;51.20;;;;;;4995257;28;19921;-85
2022/06/12 04:04:06;;;;;;;;;;;19.20;51.00;;;;;;4994196;28;19914;-86
2022/06/12 04:06:32;;;;;;;;;;;19.30;51.20;;;;;;4994778;28;19918;-86
2022/06/12 04:09:04;;;;;;;;;;;19.60;51.40;;;;;;4994655;28;19945;-85
2022/06/12 04:11:32;;;;;;;;;;;19.80;51.60;;;;;;4979686;28;19922;-85
2022/06/12 04:13:59;;;;;;;;;;;20.20;52.00;;;;;;4993784;28;19975;-86
2022/06/12 04:16:32;;;;;;;;;;;20.50;52.10;;;;;;4993744;28;19929;-85
2022/06/12 04:19:00;;;;;;;;;;;21.00;52.20;;;;;;4997358;28;19914;-85
2022/06/12 04:21:35;;;;;;;;;;;21.40;52.10;;;;;;4981003;28;19993;-85
2022/06/12 04:24:04;;;;;;;;;;;21.90;51.90;;;;;;4993856;28;20448;-86
2022/06/12 04:26:35;;;;;;;;;;;22.30;51.50;;;;;;4991987;28;19922;-86
2022/06/12 04:29:10;;;;;;;;;;;22.80;51.20;;;;;;4993974;28;19960;-86
2022/06/12 04:31:35;;;;;;;;;;;23.20;50.50;;;;;;4991613;28;19918;-85
2022/06/12 04:34:07;;;;;;;;;;;23.60;49.90;;;;;;5006753;28;19914;-86
2022/06/12 04:36:33;;;;;;;;;;;24.00;49.30;;;;;;4990105;28;19921;-86
2022/06/12 04:38:58;;;;;;;;;;;24.30;48.90;;;;;;4995352;28;19921;-86
2022/06/12 04:41:25;;;;;;;;;;;24.70;48.60;;;;;;4994666;28;19929;-86
2022/06/12 04:43:51;;;;;;;;;;;25.20;47.90;;;;;;4993532;28;19940;-86
2022/06/12 04:46:17;;;;;;;;;;;25.50;47.30;;;;;;4994873;28;19924;-86
2022/06/12 04:48:44;;;;;;;;;;;25.90;46.50;;;;;;4994222;28;20362;-86
2022/06/12 04:51:10;;;;;;;;;;;26.20;45.20;;;;;;4989834;28;20069;-86
2022/06/12 04:53:36;;;;;;;;;;;26.50;44.90;;;;;;4990791;28;19968;-85
2022/06/12 04:56:02;;;;;;;;;;;26.90;44.90;;;;;;4994430;28;19922;-86
2022/06/12 04:58:28;;;;;;;;;;;27.30;44.70;;;;;;4993478;28;19913;-85
2022/06/12 05:00:53;;;;;;;;;;;27.70;44.30;;;;;;4993592;28;19941;-86
2022/06/12 05:03:19;;;;;;;;;;;28.10;43.70;;;;;;4993824;28;19918;-85
2022/06/12 05:05:45;;;;;;;;;;;28.50;43.10;;;;;;4993610;28;19921;-85
2022/06/12 05:08:10;;;;;;;;;;;28.90;42.50;;;;;;4993692;28;19927;-86
2022/06/12 05:10:36;;;;;;;;;;;29.30;42.00;;;;;;4993877;28;20358;-86
2022/06/12 05:13:02;;;;;;;;;;;29.70;41.60;;;;;;4989344;28;19926;-86
2022/06/12 05:15:27;;;;;;;;;;;30.10;41.00;;;;;;4993334;28;19922;-85
2022/06/12 05:17:53;;;;;;;;;;;30.40;39.90;;;;;;4994020;28;19922;-86
2022/06/12 05:20:20;;;;;;;;;;;30.80;39.40;;;;;;4994113;28;20286;-86
2022/06/12 05:22:46;;;;;;;;;;;31.30;38.80;;;;;;4993734;28;19918;-87
2022/06/12 05:25:13;;;;;;;;;;;31.80;38.20;;;;;;4992807;28;19941;-87
2022/06/12 05:27:39;;;;;;;;;;;32.20;37.50;;;;;;4989395;28;20244;-87
2022/06/12 05:30:06;;;;;;;;;;;32.60;36.90;;;;;;4989115;28;19925;-87
2022/06/12 05:32:32;;;;;;;;;;;33.00;36.10;;;;;;4993000;28;19913;-87
2022/06/12 05:34:58;;;;;;;;;;;33.40;35.50;;;;;;4994989;28;19929;-87
2022/06/12 05:37:23;;;;;;;;;;;33.90;35.00;;;;;;4996740;28;20009;-87
2022/06/12 05:39:49;;;;;;;;;;;34.30;34.60;;;;;;4998086;28;19926;-87
2022/06/12 05:42:14;;;;;;;;;;;34.70;33.70;;;;;;4994913;28;19921;-87
2022/06/12 05:44:40;;;;;;;;;;;35.20;33.20;;;;;;4992932;28;19927;-87
2022/06/12 05:47:06;;;;;;;;;;;35.60;32.70;;;;;;4992544;28;20016;-87
2022/06/12 05:49:31;;;;;;;;;;;35.90;31.80;;;;;;4997431;28;20370;-87
2022/06/12 05:51:57;;;;;;;;;;;36.30;31.20;;;;;;4996166;28;20397;-87
2022/06/12 05:54:22;;;;;;;;;;;36.70;30.40;;;;;;4995391;28;20389;-87
2022/06/12 05:56:48;;;;;;;;;;;37.00;30.00;;;;;;4997064;28;19918;-88
2022/06/12 05:59:14;;;;;;;;;;;37.30;29.50;;;;;;4987424;28;19980;-87
2022/06/12 06:01:40;;;;;;;;;;;37.60;28.80;;;;;;4997103;28;19961;-87
2022/06/12 06:04:11;;;;;;;;;;;37.90;28.40;;;;;;4997315;28;19918;-87
2022/06/12 06:06:40;;;;;;;;;;;38.30;27.70;;;;;;4995347;28;20389;-87
2022/06/12 06:09:06;;;;;;;;;;;38.50;26.80;;;;;;4995545;28;19968;-87
2022/06/12 06:11:31;;;;;;;;;;;38.80;25.80;;;;;;4995254;28;19909;-86
2022/06/12 06:13:57;;;;;;;;;;;39.10;25.10;;;;;;4991277;28;19918;-87
2022/06/12 06:16:22;;;;;;;;;;;39.40;24.40;;;;;;4977223;28;19922;-87
2022/06/12 06:18:48;;;;;;;;;;;39.70;23.80;;;;;;4977222;28;19925;-88
2022/06/12 06:21:14;;;;;;;;;;;39.90;23.50;;;;;;4993663;28;19921;-88
2022/06/12 06:23:40;;;;;;;;;;;40.30;23.40;;;;;;4996059;28;19914;-87
2022/06/12 06:26:05;;;;;;;;;;;40.60;22.90;;;;;;4997583;28;19944;-88
2022/06/12 06:28:34;;;;;;;;;;;40.90;21.80;;;;;;5012279;28;19918;-88
2022/06/12 06:30:59;;;;;;;;;;;41.10;20.10;;;;;;4997716;28;19914;-88
2022/06/12 06:33:25;;;;;;;;;;;41.20;20.40;;;;;;4994710;28;19941;-87
2022/06/12 06:35:56;;;;;;;;;;;41.40;20.60;;;;;;4994778;28;19972;-87
2022/06/12 06:38:22;;;;;;;;;;;41.70;20.60;;;;;;4996744;28;19918;-87
2022/06/12 06:40:50;;;;;;;;;;;41.80;20.50;;;;;;4995487;28;20107;-87
2022/06/12 06:43:16;;;;;;;;;;;42.10;20.30;;;;;;4995540;28;19977;-87
2022/06/12 06:48:26;;;;;;;;;;;42.70;19.90;;;;;;4995927;28;19934;-87
2022/06/12 06:50:52;;;;;;;;;;;42.80;18.90;;;;;;4996821;28;19922;-87
2022/06/12 06:53:18;;;;;;;;;;;43.00;18.70;;;;;;4996285;28;19918;-87
2022/06/12 06:55:44;;;;;;;;;;;43.10;18.60;;;;;;4995977;28;19926;-86
2022/06/12 06:58:11;;;;;;;;;;;43.30;18.20;;;;;;4996172;28;19925;-87
2022/06/12 07:00:38;;;;;;;;;;;43.30;18.00;;;;;;4994560;28;19917;-89
2022/06/12 07:03:04;;;;;;;;;;;43.50;18.10;;;;;;4988598;28;19914;-87
2022/06/12 07:05:32;;;;;;;;;;;43.70;18.40;;;;;;4976280;28;20268;-87
2022/06/12 07:08:01;;;;;;;;;;;43.90;18.00;;;;;;4987870;28;20290;-87
2022/06/12 07:10:27;;;;;;;;;;;44.00;17.70;;;;;;4990619;28;19921;-87
2022/06/12 07:12:52;;;;;;;;;;;44.20;17.60;;;;;;4988631;28;19918;-87
2022/06/12 07:15:19;;;;;;;;;;;44.30;17.30;;;;;;4984714;28;20334;-87
2022/06/12 07:17:45;;;;;;;;;;;44.50;16.90;;;;;;4984343;28;20004;-87
2022/06/12 07:20:12;;;;;;;;;;;44.70;16.80;;;;;;4979216;28;20498;-87
2022/06/12 07:22:40;;;;;;;;;;;44.80;16.70;;;;;;4989090;28;19917;-87
2022/06/12 07:25:10;;;;;;;;;;;44.90;16.50;;;;;;4979964;28;19911;-87
2022/06/12 07:27:37;;;;;;;;;;;45.20;16.40;;;;;;4978864;28;20346;-87
2022/06/12 07:30:03;;;;;;;;;;;45.00;16.10;;;;;;4978352;28;20294;-85
2022/06/12 07:32:29;;;;;;;;;;;45.00;16.20;;;;;;4991564;28;19913;-86
2022/06/12 07:34:54;;;;;;;;;;;45.10;16.20;;;;;;4987431;28;20389;-87
2022/06/12 07:37:20;;;;;;;;;;;45.20;16.00;;;;;;4983912;28;20061;-88
2022/06/12 07:39:46;;;;;;;;;;;45.30;16.00;;;;;;4985731;28;19921;-87
2022/06/12 07:42:12;;;;;;;;;;;45.40;16.00;;;;;;4985182;28;19917;-88
2022/06/12 07:44:38;;;;;;;;;;;45.60;16.00;;;;;;4986708;28;20346;-88
2022/06/12 07:47:04;;;;;;;;;;;45.70;15.90;;;;;;4993179;28;19922;-87
2022/06/12 07:49:31;;;;;;;;;;;45.70;15.30;;;;;;4992645;28;19914;-88
2022/06/12 07:51:57;;;;;;;;;;;45.80;15.20;;;;;;4981008;28;19949;-87
2022/06/12 07:54:23;;;;;;;;;;;45.60;15.20;;;;;;4975320;28;20342;-87
2022/06/12 07:56:49;;;;;;;;;;;45.30;15.10;;;;;;4991499;28;19956;-88
2022/06/12 07:59:14;;;;;;;;;;;44.90;15.30;;;;;;4985088;28;19964;-88
2022/06/12 08:01:40;;;;;;;;;;;44.80;15.70;;;;;;4995473;28;19973;-88
2022/06/12 08:04:06;;;;;;;;;;;44.90;15.90;;;;;;4990124;28;19918;-88
2022/06/12 08:06:31;;;;;;;;;;;45.00;15.80;;;;;;4989280;28;19914;-87
2022/06/12 08:08:57;;;;;;;;;;;45.00;15.90;;;;;;4984675;28;20072;-88
2022/06/12 08:11:23;;;;;;;;;;;45.20;16.00;;;;;;4978278;28;20005;-88
2022/06/12 08:13:49;;;;;;;;;;;45.40;15.80;;;;;;4982877;28;19926;-88
2022/06/12 08:16:15;;;;;;;;;;;45.60;15.60;;;;;;5001757;28;19926;-87
2022/06/12 08:18:40;;;;;;;;;;;45.80;15.70;;;;;;4986005;28;19922;-88
2022/06/12 08:21:08;;;;;;;;;;;45.90;15.80;;;;;;4982922;28;19965;-88
2022/06/12 08:23:37;;;;;;;;;;;46.00;15.70;;;;;;4978819;28;19958;-88
2022/06/12 08:26:05;;;;;;;;;;;46.10;15.40;;;;;;4983050;28;19918;-88
2022/06/12 08:28:33;;;;;;;;;;;46.10;15.20;;;;;;4981780;28;19918;-88
2022/06/12 08:31:01;;;;;;;;;;;46.20;15.30;;;;;;4987234;28;19988;-88
2022/06/12 08:33:27;;;;;;;;;;;46.00;15.00;;;;;;4975875;28;19918;-87
2022/06/12 08:35:53;;;;;;;;;;;45.80;15.20;;;;;;4984881;28;20370;-88
2022/06/12 08:38:18;;;;;;;;;;;45.50;15.20;;;;;;4986473;28;19918;-89
2022/06/12 08:40:57;;;;;;;;;;;45.20;15.40;;;;;;4989217;28;19918;-90
2022/06/12 08:43:38;;;;;;;;;;;45.10;15.70;;;;;;4986869;28;19924;-89
2022/06/12 08:46:09;;;;;;;;;;;44.80;15.50;;;;;;4982048;28;19913;-89
2022/06/12 08:48:41;;;;;;;;;;;44.40;15.60;;;;;;4986804;28;20691;-89
2022/06/12 08:51:17;;;;;;;;;;;43.90;15.60;;;;;;4994415;28;20001;-89
2022/06/12 08:53:48;;;;;;;;;;;43.40;15.40;;;;;;4991265;28;20405;-88
2022/06/12 08:56:31;;;;;;;;;;;42.90;15.80;;;;;;4974970;28;19926;-87
2022/06/12 08:59:03;;;;;;;;;;;42.40;15.90;;;;;;4986946;28;20021;-87
2022/06/12 09:01:29;;;;;;;;;;;42.00;16.20;;;;;;4982218;28;20342;-88
2022/06/12 09:03:55;;;;;;;;;;;41.70;16.40;;;;;;4984786;28;19920;-88
2022/06/12 09:06:40;;;;;;;;;;;41.50;16.50;;;;;;4981941;28;20429;-88
2022/06/12 09:09:08;;;;;;;;;;;41.40;16.80;;;;;;5001882;28;19964;-88
2022/06/12 09:11:46;;;;;;;;;;;41.80;16.90;;;;;;4996824;28;19925;-88
2022/06/12 09:14:30;;;;;;;;;;;42.20;16.80;;;;;;4997935;28;19921;-89
2022/06/12 09:17:01;;;;;;;;;;;42.40;16.20;;;;;;5000552;28;20460;-89
2022/06/12 09:19:30;;;;;;;;;;;42.40;16.40;;;;;;5000830;28;19914;-89
2022/06/12 09:22:09;;;;;;;;;;;42.80;16.00;;;;;;4997337;28;19989;-88
2022/06/12 09:24:58;;;;;;;;;;;43.10;15.50;;;;;;4998263;28;20653;-87
2022/06/12 09:27:48;;;;;;;;;;;43.40;15.50;;;;;;4996172;28;20359;-87
2022/06/12 09:30:18;;;;;;;;;;;43.80;14.80;;;;;;4998569;28;19953;-88
2022/06/12 09:32:55;;;;;;;;;;;44.00;14.90;;;;;;4996508;28;19920;-87
2022/06/12 09:35:43;;;;;;;;;;;44.30;14.60;;;;;;4993807;28;19934;-87
2022/06/12 09:38:23;;;;;;;;;;;44.40;14.60;;;;;;4994662;28;19918;-87
2022/06/12 09:40:52;;;;;;;;;;;44.30;14.20;;;;;;4992616;28;19917;-86
2022/06/12 09:43:24;;;;;;;;;;;44.30;14.30;;;;;;4991062;28;20583;-86
2022/06/12 09:45:50;;;;;;;;;;;44.60;14.40;;;;;;4994664;28;19953;-87
2022/06/12 09:48:15;;;;;;;;;;;45.00;14.40;;;;;;4997896;28;19957;-87
2022/06/12 09:51:08;;;;;;;;;;;45.30;14.30;;;;;;4993942;28;19917;-87
2022/06/12 09:53:53;;;;;;;;;;;45.60;13.90;;;;;;4990836;28;20005;-87
2022/06/12 09:56:20;;;;;;;;;;;45.90;13.80;;;;;;4990537;28;19929;-87
2022/06/12 09:58:58;;;;;;;;;;;46.20;13.60;;;;;;4992333;28;19914;-88
2022/06/12 10:01:26;;;;;;;;;;;46.50;13.30;;;;;;4993179;28;19918;-88
2022/06/12 10:03:59;;;;;;;;;;;46.70;13.30;;;;;;4993943;28;19928;-88
2022/06/12 10:06:38;;;;;;;;;;;46.80;13.20;;;;;;4992612;28;19917;-88
2022/06/12 10:09:09;;;;;;;;;;;47.00;12.90;;;;;;4994168;28;19914;-88
2022/06/12 10:11:38;;;;;;;;;;;47.20;12.80;;;;;;4992031;28;19921;-89
2022/06/12 10:14:11;;;;;;;;;;;47.40;12.60;;;;;;4996474;28;19913;-86
2022/06/12 10:16:39;;;;;;;;;;;47.50;12.50;;;;;;4991110;28;19929;-87
2022/06/12 10:19:13;;;;;;;;;;;47.80;12.50;;;;;;4983822;28;20366;-87
2022/06/12 10:21:40;;;;;;;;;;;48.10;12.20;;;;;;4998563;28;19947;-87
2022/06/12 10:24:12;;;;;;;;;;;48.30;12.20;;;;;;4991045;28;19914;-88
2022/06/12 10:26:37;;;;;;;;;;;48.40;12.10;;;;;;4986149;28;19921;-87
2022/06/12 10:29:11;;;;;;;;;;;48.30;11.90;;;;;;4992034;28;19921;-87
2022/06/12 10:35:24;;;;;;;;;;;48.00;11.30;;;;;;4978891;28;19922;-89
2022/06/12 10:37:51;;;;;;;;;;;47.80;11.00;;;;;;4936198;28;20362;-88
2022/06/12 10:40:23;;;;;;;;;;;47.80;11.40;;;;;;4985340;28;19979;-88
2022/06/12 10:42:49;;;;;;;;;;;48.00;11.60;;;;;;4991751;28;19954;-88
2022/06/12 10:45:22;;;;;;;;;;;48.30;11.70;;;;;;4994945;28;19914;-89
2022/06/12 10:47:49;;;;;;;;;;;48.50;11.40;;;;;;4986907;28;19965;-88
2022/06/12 10:50:21;;;;;;;;;;;48.40;11.00;;;;;;4996163;28;20362;-89
2022/06/12 10:52:51;;;;;;;;;;;48.30;11.00;;;;;;4989800;28;19924;-89
2022/06/12 10:55:23;;;;;;;;;;;48.30;11.30;;;;;;4991275;28;19930;-90
2022/06/12 10:58:01;;;;;;;;;;;48.10;10.80;;;;;;4984770;28;19922;-89
2022/06/12 11:00:29;;;;;;;;;;;47.80;11.30;;;;;;4970528;28;19918;-90
2022/06/12 11:03:18;;;;;;;;;;;47.70;11.40;;;;;;4995297;28;19918;-89
2022/06/12 11:05:55;;;;;;;;;;;47.60;11.50;;;;;;4988181;28;19916;-89
2022/06/12 11:08:33;;;;;;;;;;;47.60;11.40;;;;;;4994762;28;19918;-90
2022/06/12 11:11:13;;;;;;;;;;;47.40;11.50;;;;;;4989194;28;19920;-89
2022/06/12 11:13:46;;;;;;;;;;;46.90;11.70;;;;;;4991232;28;19918;-88
2022/06/12 11:16:21;;;;;;;;;;;46.40;11.90;;;;;;4977461;28;19929;-89
2022/06/12 11:18:53;;;;;;;;;;;46.30;12.10;;;;;;4994340;28;19984;-90
2022/06/12 11:21:40;;;;;;;;;;;46.20;12.00;;;;;;4994354;28;19925;-91
2022/06/12 11:24:06;;;;;;;;;;;46.00;12.00;;;;;;4991029;28;19926;-90
2022/06/12 11:26:37;;;;;;;;;;;46.30;11.90;;;;;;4992331;28;19925;-90
2022/06/12 11:29:18;;;;;;;;;;;46.60;11.90;;;;;;4994037;28;19925;-90
2022/06/12 11:31:47;;;;;;;;;;;46.60;12.10;;;;;;4994367;28;19914;-89
2022/06/12 11:34:31;;;;;;;;;;;46.90;12.20;;;;;;4994240;28;19948;-89
2022/06/12 11:37:08;;;;;;;;;;;47.20;11.90;;;;;;4993241;28;19983;-88
2022/06/12 11:39:41;;;;;;;;;;;47.20;11.60;;;;;;4989948;28;19997;-89
2022/06/12 11:42:12;;;;;;;;;;;47.20;11.60;;;;;;4989967;28;19920;-89
2022/06/12 11:44:56;;;;;;;;;;;47.20;11.30;;;;;;4988967;28;19921;-89
2022/06/12 11:47:41;;;;;;;;;;;46.50;11.10;;;;;;4991990;28;19925;-88
2022/06/12 11:50:06;;;;;;;;;;;46.20;11.50;;;;;;4993855;28;19964;-88
2022/06/12 11:52:50;;;;;;;;;;;46.30;11.80;;;;;;4987230;28;20330;-89
2022/06/12 11:55:42;;;;;;;;;;;46.20;11.60;;;;;;4992532;28;19917;-88
2022/06/12 11:58:25;;;;;;;;;;;45.80;11.80;;;;;;4970928;28;19922;-88
2022/06/12 12:01:10;;;;;;;;;;;45.50;12.10;;;;;;4986075;28;19913;-90
2022/06/12 12:03:59;;;;;;;;;;;45.80;12.20;;;;;;4979369;28;19918;-90
2022/06/12 12:06:43;;;;;;;;;;;46.40;12.10;;;;;;4991388;28;19910;-89
2022/06/12 12:09:17;;;;;;;;;;;46.80;11.90;;;;;;4987494;28;20013;-88
2022/06/12 12:11:45;;;;;;;;;;;47.00;11.90;;;;;;4988066;28;19910;-88
2022/06/12 12:14:14;;;;;;;;;;;47.00;12.00;;;;;;4987300;28;19922;-89
2022/06/12 12:16:40;;;;;;;;;;;47.30;11.80;;;;;;4992569;28;20354;-88
2022/06/12 12:19:12;;;;;;;;;;;47.70;11.90;;;;;;4987266;28;19924;-90
2022/06/12 12:21:40;;;;;;;;;;;48.00;11.80;;;;;;4989742;28;20318;-89
2022/06/12 12:24:07;;;;;;;;;;;48.30;11.80;;;;;;4994163;28;19918;-91
2022/06/12 12:26:37;;;;;;;;;;;47.90;11.80;;;;;;5008869;28;19909;-90
2022/06/12 12:29:05;;;;;;;;;;;47.10;11.70;;;;;;4993187;28;19960;-90
2022/06/12 12:31:31;;;;;;;;;;;46.60;11.80;;;;;;4991170;28;19945;-90
2022/06/12 12:33:57;;;;;;;;;;;46.70;11.90;;;;;;4994856;28;19921;-91
2022/06/12 12:42:23;;;;;;;;;;;46.70;11.70;;;;;;4997753;28;20327;-91
2022/06/12 12:44:49;;;;;;;;;;;45.50;12.00;;;;;;4994162;28;19914;-91
2022/06/12 12:47:19;;;;;;;;;;;45.30;12.20;;;;;;4993488;28;19964;-91
2022/06/12 12:49:44;;;;;;;;;;;44.70;12.40;;;;;;4994514;28;20356;-90
2022/06/12 12:52:20;;;;;;;;;;;43.90;12.70;;;;;;4994501;28;19918;-91
2022/06/12 12:54:46;;;;;;;;;;;43.20;13.10;;;;;;4994186;28;19922;-89
2022/06/12 12:57:13;;;;;;;;;;;42.40;13.50;;;;;;4993510;28;19972;-90
2022/06/12 12:59:46;;;;;;;;;;;42.20;13.90;;;;;;4996393;28;19925;-90
2022/06/12 13:02:29;;;;;;;;;;;42.40;13.50;;;;;;4996291;28;19910;-89
2022/06/12 13:04:57;;;;;;;;;;;42.30;13.60;;;;;;4992883;28;19918;-88
2022/06/12 13:07:41;;;;;;;;;;;42.30;13.90;;;;;;4988308;28;20633;-88
2022/06/12 13:10:19;;;;;;;;;;;42.70;14.00;;;;;;4995518;28;19925;-88
2022/06/12 13:13:03;;;;;;;;;;;43.10;14.00;;;;;;4994187;28;19921;-87
2022/06/12 13:15:28;;;;;;;;;;;43.30;14.00;;;;;;4992731;28;19926;-87
2022/06/12 13:17:54;;;;;;;;;;;43.60;13.90;;;;;;4994939;28;19968;-88
2022/06/12 13:20:31;;;;;;;;;;;43.30;13.70;;;;;;4992787;28;19937;-86
2022/06/12 13:23:14;;;;;;;;;;;43.30;13.80;;;;;;4994523;28;20352;-87
2022/06/12 13:25:42;;;;;;;;;;;43.10;13.80;;;;;;4993030;28;19925;-85
2022/06/12 13:28:18;;;;;;;;;;;43.00;14.00;;;;;;4994125;28;19921;-87
2022/06/12 13:30:44;;;;;;;;;;;43.10;14.10;;;;;;4993686;28;19924;-88
2022/06/12 13:33:15;;;;;;;;;;;43.30;14.00;;;;;;4993282;28;19918;-89
2022/06/12 13:35:49;;;;;;;;;;;43.50;13.70;;;;;;4994898;28;19996;-88
2022/06/12 13:38:28;;;;;;;;;;;43.60;13.60;;;;;;4994806;28;19914;-87
2022/06/12 13:40:57;;;;;;;;;;;43.60;13.70;;;;;;4996549;28;19946;-89
2022/06/12 13:43:27;;;;;;;;;;;43.50;13.60;;;;;;4996333;28;19913;-90
2022/06/12 13:45:54;;;;;;;;;;;43.20;13.70;;;;;;4996289;28;20358;-88
2022/06/12 13:48:22;;;;;;;;;;;42.60;13.80;;;;;;4995273;28;19957;-89
2022/06/12 13:50:50;;;;;;;;;;;42.70;13.50;;;;;;4994389;28;19922;-88
2022/06/12 13:53:17;;;;;;;;;;;42.70;13.40;;;;;;4994975;28;19925;-88
2022/06/12 13:55:42;;;;;;;;;;;42.70;13.60;;;;;;4994115;28;19926;-88
2022/06/12 13:58:19;;;;;;;;;;;42.70;13.50;;;;;;4991488;28;19914;-88
2022/06/12 14:00:47;;;;;;;;;;;42.70;13.50;;;;;;5012189;28;20067;-88
2022/06/12 14:03:20;;;;;;;;;;;42.90;13.50;;;;;;4996296;28;19946;-88
2022/06/12 14:05:49;;;;;;;;;;;42.80;13.60;;;;;;4994843;28;19922;-88
2022/06/12 14:08:15;;;;;;;;;;;42.50;13.70;;;;;;4995755;28;19921;-88
2022/06/12 14:10:42;;;;;;;;;;;41.90;14.00;;;;;;4997643;28;19918;-87
2022/06/12 14:13:14;;;;;;;;;;;41.70;14.30;;;;;;4997258;28;19913;-89
2022/06/12 14:15:40;;;;;;;;;;;42.00;14.20;;;;;;4994563;28;19930;-87
2022/06/12 14:18:08;;;;;;;;;;;42.10;14.10;;;;;;5008504;28;19918;-84
2022/06/12 14:20:35;;;;;;;;;;;42.20;13.90;;;;;;4997890;28;19988;-86
2022/06/12 14:23:03;;;;;;;;;;;42.30;13.80;;;;;;4996993;28;19918;-85
2022/06/12 14:25:36;;;;;;;;;;;42.20;13.70;;;;;;4995822;28;19961;-86
2022/06/12 14:28:05;;;;;;;;;;;42.00;13.90;;;;;;4994538;28;19914;-85
2022/06/12 14:30:30;;;;;;;;;;;41.80;13.70;;;;;;4994188;28;20309;-86
2022/06/12 14:32:56;;;;;;;;;;;41.40;13.90;;;;;;4994983;28;19924;-86
2022/06/12 14:35:21;;;;;;;;;;;40.90;14.30;;;;;;4994353;28;20318;-87
2022/06/12 14:37:47;;;;;;;;;;;40.50;14.50;;;;;;4993161;28;19921;-87
2022/06/12 14:40:22;;;;;;;;;;;39.60;15.00;;;;;;4997205;28;19925;-88
2022/06/12 14:43:06;;;;;;;;;;;38.80;15.50;;;;;;4997913;28;19946;-87
2022/06/12 14:45:32;;;;;;;;;;;38.30;16.10;;;;;;4986250;28;19918;-87
2022/06/12 14:47:57;;;;;;;;;;;37.70;16.60;;;;;;4997426;28;19914;-88
2022/06/12 14:50:23;;;;;;;;;;;37.20;17.00;;;;;;4998835;28;19921;-88
2022/06/12 14:52:48;;;;;;;;;;;36.80;17.50;;;;;;4996312;28;20017;-89
2022/06/12 14:55:14;;;;;;;;;;;36.40;17.90;;;;;;4999437;28;19921;-87